KMWC/MWC METAR and TAF weather

Enter ICAO airport designator
Station Type Date Time Source
KMWC METAR 2021/02/27 03:15 UTC NOAA

KMWC 270315Z AUTO 16007KT 10SM OVC090 01/M05 A2987 RMK AO2


Station Type Date Time Source
KMWC Decoded METAR 2021/02/27 03:15 UTC NOAA

Milwaukee / Timmerman, WI, United States (KMWC) 43-07N 088-02W
Feb 26, 2021 - 10:15 PM EST / 2021.02.27 0315 UTC
Wind: from the SSE (160 degrees) at 8 MPH (7 KT):0
Visibility: 10 mile(s):0
Sky conditions: overcast
Temperature: 33 F (1 C)
Windchill: 26 F (-3 C):1
Dew Point: 23 F (-5 C)
Relative Humidity: 64%
Pressure (altimeter): 29.87 in. Hg (1011 hPa)
ob: KMWC 270315Z AUTO 16007KT 10SM OVC090 01/M05 A2987 RMK AO2
cycle: 3

Station Type Date Time Source
KMWC TAF UTC NOAA

Error!

Example: see airport list